createdAt,value
2018-05-23T00:02:06.739Z,99829.23
2018-05-23T00:04:32.678Z,99826.19
2018-05-23T00:06:58.613Z,99835.38
2018-05-23T00:09:24.545Z,99836.08
2018-05-23T00:11:50.517Z,99839.70
2018-05-23T00:14:16.464Z,99827.91
2018-05-23T00:16:42.413Z,99825.86
2018-05-23T00:19:08.378Z,99815.20
2018-05-23T00:24:06.734Z,99829.69
2018-05-23T00:26:32.686Z,99825.72
2018-05-23T00:28:58.648Z,99825.75
2018-05-23T00:31:24.607Z,99832.87
2018-05-23T00:33:50.568Z,99836.09
2018-05-23T00:36:16.548Z,99828.19
2018-05-23T00:38:42.516Z,99833.55
2018-05-23T00:41:08.450Z,99834.33
2018-05-23T00:43:34.416Z,99834.77
2018-05-23T00:46:00.360Z,99831.94
2018-05-23T00:48:26.299Z,99843.09
2018-05-23T00:50:52.238Z,99841.70
2018-05-23T00:53:18.179Z,99854.41
2018-05-23T00:55:44.108Z,99854.97
2018-05-23T00:58:10.069Z,99849.70
2018-05-23T01:00:36.113Z,99854.25
2018-05-23T01:03:02.087Z,99856.66
2018-05-23T01:05:28.036Z,99860.25
2018-05-23T01:07:53.971Z,99853.86
2018-05-23T01:10:19.944Z,99852.52
2018-05-23T01:12:45.901Z,99851.07
2018-05-23T01:15:11.867Z,99848.82
2018-05-23T01:17:37.898Z,99854.52
2018-05-23T01:20:03.845Z,99860.94
2018-05-23T01:22:29.809Z,99860.65
2018-05-23T01:24:55.786Z,99863.06
2018-05-23T01:27:21.711Z,99864.90
2018-05-23T01:29:47.675Z,99864.37
2018-05-23T01:32:13.639Z,99856.58
2018-05-23T01:34:39.574Z,99855.52
2018-05-23T01:37:05.534Z,99860.48
2018-05-23T01:39:31.480Z,99861.39
2018-05-23T01:41:57.439Z,99857.94
2018-05-23T01:44:23.394Z,99858.70
2018-05-23T01:46:49.331Z,99858.14
2018-05-23T01:49:15.298Z,99856.32
2018-05-23T01:51:41.253Z,99859.05
2018-05-23T01:54:07.200Z,99861.50
2018-05-23T01:56:33.162Z,99861.36
2018-05-23T01:58:59.127Z,99859.70
2018-05-23T02:01:25.173Z,99857.31
2018-05-23T02:03:51.155Z,99856.44
2018-05-23T02:06:17.108Z,99859.47
2018-05-23T02:08:43.088Z,99854.62
2018-05-23T02:11:09.024Z,99858.78
2018-05-23T02:13:34.965Z,99864.23
2018-05-23T02:16:00.899Z,99871.66
2018-05-23T02:18:26.866Z,99877.65
2018-05-23T02:20:52.824Z,99880.12
2018-05-23T02:23:18.792Z,99877.91
2018-05-23T02:25:44.731Z,99870.10
2018-05-23T02:28:10.658Z,99885.10
2018-05-23T02:30:36.596Z,99875.72
2018-05-23T02:33:02.563Z,99881.70
2018-05-23T02:35:28.524Z,99877.00
2018-05-23T02:37:54.473Z,99876.85
2018-05-23T02:40:20.450Z,99880.72
2018-05-23T02:42:46.379Z,99877.00
2018-05-23T02:45:12.333Z,99884.66
2018-05-23T02:47:38.302Z,99882.91
2018-05-23T02:50:04.266Z,99886.41
2018-05-23T02:52:30.255Z,99889.67
2018-05-23T02:54:56.243Z,99894.48
2018-05-23T02:57:22.190Z,99899.55
2018-05-23T02:59:48.163Z,99895.66
2018-05-23T03:02:14.107Z,99901.36
2018-05-23T03:04:40.066Z,99913.33
2018-05-23T03:07:06.034Z,99906.80
2018-05-23T03:09:31.997Z,99913.80
2018-05-23T03:11:57.930Z,99921.90
2018-05-23T03:14:23.880Z,99919.95
2018-05-23T03:16:49.839Z,99923.04
2018-05-23T03:19:15.778Z,99924.55
2018-05-23T03:21:41.732Z,99926.25
2018-05-23T03:24:07.719Z,99934.04
2018-05-23T03:26:33.681Z,99927.81
2018-05-23T03:28:59.669Z,99922.03
2018-05-23T03:31:25.613Z,99916.09
2018-05-23T03:33:54.913Z,99919.24
2018-05-23T03:36:20.846Z,99918.36
2018-05-23T03:38:46.813Z,99927.38
2018-05-23T03:41:12.763Z,99929.34
2018-05-23T03:43:38.771Z,99932.08
2018-05-23T03:46:04.721Z,99928.44
2018-05-23T03:48:30.983Z,99940.95
2018-05-23T03:50:56.963Z,99939.11
2018-05-23T03:53:22.934Z,99940.42
2018-05-23T03:55:48.917Z,99934.44
2018-05-23T03:58:14.883Z,99935.79
2018-05-23T04:00:40.917Z,99926.56
2018-05-23T04:03:06.885Z,99934.44
2018-05-23T04:05:32.827Z,99944.88
2018-05-23T04:07:58.834Z,99952.66
2018-05-23T04:10:24.803Z,99948.84
2018-05-23T04:12:50.821Z,99948.98
2018-05-23T04:15:16.776Z,99942.61
2018-05-23T04:17:42.718Z,99949.72
2018-05-23T04:20:08.686Z,99956.39
2018-05-23T04:22:34.640Z,99955.77
2018-05-23T04:25:00.688Z,99955.42
2018-05-23T04:27:26.575Z,99966.52
2018-05-23T04:29:52.548Z,99968.29
2018-05-23T04:32:18.515Z,99969.25
2018-05-23T04:34:44.480Z,99970.48
2018-05-23T04:37:10.439Z,99975.19
2018-05-23T04:39:36.418Z,99981.62
2018-05-23T04:42:02.396Z,99977.19
2018-05-23T04:44:28.326Z,99979.50
2018-05-23T04:46:54.284Z,99984.83
2018-05-23T04:49:20.267Z,99988.06
2018-05-23T04:51:46.199Z,99986.22
2018-05-23T04:54:12.174Z,99995.86
2018-05-23T04:56:38.109Z,100001.30
2018-05-23T04:59:04.068Z,100003.57
2018-05-23T05:01:30.033Z,100004.44
2018-05-23T05:03:55.982Z,100006.39
2018-05-23T05:06:21.916Z,100006.10
2018-05-23T05:08:47.862Z,100010.91
2018-05-23T05:11:14.005Z,100016.17
2018-05-23T05:13:39.964Z,100015.33
2018-05-23T05:16:06.015Z,100020.33
2018-05-23T05:18:31.981Z,100028.27
2018-05-23T05:20:57.918Z,100031.19
2018-05-23T05:23:23.866Z,100031.88
2018-05-23T05:25:49.918Z,100033.11
2018-05-23T05:28:15.877Z,100027.22
2018-05-23T05:30:41.890Z,100036.97
2018-05-23T05:33:07.853Z,100036.83
2018-05-23T05:35:33.846Z,100034.31
2018-05-23T05:37:59.790Z,100045.73
2018-05-23T05:40:25.784Z,100043.23
2018-05-23T05:42:51.733Z,100049.79
2018-05-23T05:45:17.721Z,100054.32
2018-05-23T05:47:43.709Z,100054.20
2018-05-23T05:50:09.684Z,100053.59
2018-05-23T05:52:35.666Z,100056.97
2018-05-23T05:55:01.666Z,100053.91
2018-05-23T05:57:27.654Z,100064.80
2018-05-23T05:59:53.639Z,100067.99
2018-05-23T06:02:19.600Z,100065.05
2018-05-23T06:04:45.561Z,100077.24
2018-05-23T06:07:11.507Z,100074.05
2018-05-23T06:09:37.497Z,100069.94
2018-05-23T06:12:03.453Z,100082.13
2018-05-23T06:14:29.441Z,100087.38
2018-05-23T06:16:55.393Z,100088.96
2018-05-23T06:19:21.429Z,100092.54
2018-05-23T06:21:47.413Z,100091.36
2018-05-23T06:24:13.386Z,100096.09
2018-05-23T06:26:39.365Z,100094.02
2018-05-23T06:29:05.319Z,100098.70
2018-05-23T06:31:31.277Z,100108.80
2018-05-23T06:33:57.256Z,100108.45
2018-05-23T06:36:23.226Z,100106.44
2018-05-23T06:38:49.199Z,100100.94
2018-05-23T06:41:15.217Z,100102.64
2018-05-23T06:43:41.286Z,100105.70
2018-05-23T06:46:07.261Z,100113.58
2018-05-23T06:48:33.222Z,100112.63
2018-05-23T06:50:59.154Z,100115.11
2018-05-23T06:53:25.202Z,100117.02
2018-05-23T06:55:51.188Z,100125.67
2018-05-23T06:58:17.145Z,100121.30
2018-05-23T07:00:43.120Z,100117.30
2018-05-23T07:03:09.106Z,100119.78
2018-05-23T07:05:35.068Z,100123.90
2018-05-23T07:08:01.017Z,100117.22
2018-05-23T07:10:26.953Z,100123.08
2018-05-23T07:12:52.906Z,100122.66
2018-05-23T07:15:18.855Z,100124.56
2018-05-23T07:17:44.830Z,100125.50
2018-05-23T07:20:10.863Z,100129.09
2018-05-23T07:22:37.793Z,100123.97
2018-05-23T07:25:03.758Z,100120.62
2018-05-23T07:27:29.701Z,100125.61
2018-05-23T07:29:55.667Z,100122.48
2018-05-23T07:32:21.652Z,100130.75
2018-05-23T07:34:47.620Z,100122.88
2018-05-23T07:37:13.562Z,100123.00
2018-05-23T07:39:39.523Z,100127.70
2018-05-23T07:42:05.484Z,100129.31
2018-05-23T07:44:31.479Z,100130.09
2018-05-23T07:46:57.453Z,100133.45
2018-05-23T07:49:23.426Z,100138.40
2018-05-23T07:51:49.430Z,100138.37
2018-05-23T07:54:15.404Z,100140.22
2018-05-23T07:56:41.395Z,100132.77
2018-05-23T07:59:07.329Z,100137.48
2018-05-23T08:01:33.287Z,100135.09
2018-05-23T08:03:59.232Z,100138.55
2018-05-23T08:06:25.173Z,100132.66
2018-05-23T08:08:51.205Z,100141.67
2018-05-23T08:11:17.207Z,100141.36
2018-05-23T08:13:43.262Z,100143.02
2018-05-23T08:16:09.264Z,100146.50
2018-05-23T08:18:35.257Z,100147.12
2018-05-23T08:21:01.330Z,100136.86
2018-05-23T08:23:27.343Z,100140.30
2018-05-23T08:25:53.342Z,100134.34
2018-05-23T08:28:20.049Z,100140.48
2018-05-23T08:30:46.054Z,100136.53
2018-05-23T08:33:12.076Z,100134.64
2018-05-23T08:35:38.078Z,100146.44
2018-05-23T08:38:04.027Z,100139.78
2018-05-23T08:40:29.981Z,100141.87
2018-05-23T08:42:55.922Z,100145.13
2018-05-23T08:45:21.901Z,100144.93
2018-05-23T08:47:47.886Z,100145.86
2018-05-23T08:50:13.865Z,100144.09
2018-05-23T08:52:39.935Z,100129.77
2018-05-23T08:55:05.887Z,100135.83
2018-05-23T08:57:31.850Z,100134.11
2018-05-23T08:59:57.857Z,100130.55
2018-05-23T09:02:23.794Z,100146.75
2018-05-23T09:04:49.772Z,100140.80
2018-05-23T09:07:15.702Z,100146.14
2018-05-23T09:09:41.704Z,100139.52
2018-05-23T09:12:07.710Z,100143.80
2018-05-23T09:14:33.695Z,100141.48
2018-05-23T09:16:59.683Z,100129.07
2018-05-23T09:19:25.645Z,100138.19
2018-05-23T09:21:51.604Z,100140.31
2018-05-23T09:24:17.562Z,100143.16
2018-05-23T09:26:43.498Z,100150.41
2018-05-23T09:29:09.479Z,100146.47
2018-05-23T09:31:35.443Z,100139.86
2018-05-23T09:34:01.481Z,100136.93
2018-05-23T09:36:27.490Z,100139.31
2018-05-23T09:38:53.464Z,100141.64
2018-05-23T09:41:19.402Z,100148.14
2018-05-23T09:43:45.395Z,100140.10
2018-05-23T09:46:11.342Z,100150.90
2018-05-23T09:48:37.293Z,100133.08
2018-05-23T09:51:03.247Z,100147.53
2018-05-23T09:53:29.252Z,100154.27
2018-05-23T09:55:55.212Z,100149.41
2018-05-23T09:58:21.221Z,100145.66
2018-05-23T10:00:47.235Z,100159.34
2018-05-23T10:03:13.238Z,100145.08
2018-05-23T10:05:39.198Z,100163.96
2018-05-23T10:08:05.146Z,100161.73
2018-05-23T10:10:31.123Z,100164.55
2018-05-23T10:12:57.106Z,100161.73
2018-05-23T10:15:23.075Z,100156.75
2018-05-23T10:17:49.077Z,100151.56
2018-05-23T10:20:15.049Z,100144.20
2018-05-23T10:22:41.067Z,100154.89
2018-05-23T10:25:07.064Z,100144.20
2018-05-23T10:27:33.022Z,100152.40
2018-05-23T10:29:59.094Z,100159.50
2018-05-23T10:32:25.109Z,100157.16
2018-05-23T10:34:51.090Z,100159.98
2018-05-23T10:37:17.098Z,100158.52
2018-05-23T10:39:43.099Z,100166.10
2018-05-23T10:42:09.076Z,100165.98
2018-05-23T10:44:35.102Z,100165.34
2018-05-23T10:47:01.107Z,100168.61
2018-05-23T10:49:27.116Z,100167.96
2018-05-23T10:51:53.075Z,100171.41
2018-05-23T10:54:19.089Z,100179.45
2018-05-23T10:56:45.026Z,100179.02
2018-05-23T10:59:11.073Z,100182.67
2018-05-23T11:01:37.064Z,100183.69
2018-05-23T11:04:03.089Z,100188.03
2018-05-23T11:06:29.049Z,100197.52
2018-05-23T11:08:55.049Z,100198.69
2018-05-23T11:11:20.986Z,100207.08
2018-05-23T11:13:47.096Z,100201.20
2018-05-23T11:16:13.065Z,100194.58
2018-05-23T11:18:39.031Z,100206.19
2018-05-23T11:21:04.993Z,100201.85
2018-05-23T11:23:30.977Z,100214.37
2018-05-23T11:25:56.961Z,100212.23
2018-05-23T11:28:22.916Z,100207.20
2018-05-23T11:30:48.871Z,100215.38
2018-05-23T11:33:14.807Z,100217.68
2018-05-23T11:35:40.782Z,100218.75
2018-05-23T11:38:06.731Z,100220.83
2018-05-23T11:40:32.696Z,100229.14
2018-05-23T11:42:58.650Z,100227.79
2018-05-23T11:45:24.681Z,100234.08
2018-05-23T11:47:50.661Z,100235.23
2018-05-23T11:50:16.650Z,100229.59
2018-05-23T11:52:42.614Z,100234.23
2018-05-23T11:55:08.640Z,100234.13
2018-05-23T11:57:34.591Z,100239.48
2018-05-23T12:00:00.604Z,100237.98
2018-05-23T12:02:26.561Z,100234.53
2018-05-23T12:04:52.575Z,100229.33
2018-05-23T12:07:18.560Z,100236.13
2018-05-23T12:09:44.538Z,100229.16
2018-05-23T12:12:10.473Z,100224.28
2018-05-23T12:14:36.432Z,100225.25
2018-05-23T12:17:02.366Z,100218.08
2018-05-23T12:19:28.362Z,100218.13
2018-05-23T12:21:54.306Z,100208.77
2018-05-23T12:24:20.300Z,100213.51
2018-05-23T12:26:46.318Z,100218.89
2018-05-23T12:29:12.284Z,100217.83
2018-05-23T12:31:38.229Z,100222.63
2018-05-23T12:34:04.233Z,100227.09
2018-05-23T12:36:30.236Z,100225.39
2018-05-23T12:38:56.212Z,100220.47
2018-05-23T12:41:22.235Z,100219.13
2018-05-23T12:43:48.181Z,100213.61
2018-05-23T12:46:14.147Z,100207.41
2018-05-23T12:48:40.160Z,100204.38
2018-05-23T12:51:06.202Z,100205.58
2018-05-23T12:53:32.193Z,100210.03
2018-05-23T12:55:58.198Z,100212.55
2018-05-23T12:58:24.210Z,100211.80
2018-05-23T13:00:50.173Z,100215.50
2018-05-23T13:03:16.146Z,100214.63
2018-05-23T13:05:42.154Z,100209.13
2018-05-23T13:08:08.138Z,100206.50
2018-05-23T13:10:34.151Z,100207.23
2018-05-23T13:13:00.133Z,100204.30
2018-05-23T13:15:26.205Z,100206.02
2018-05-23T13:17:52.243Z,100201.19
2018-05-23T13:20:18.253Z,100201.52
2018-05-23T13:22:44.214Z,100191.24
2018-05-23T13:25:10.207Z,100196.09
2018-05-23T13:27:36.201Z,100193.76
2018-05-23T13:30:02.184Z,100193.05
2018-05-23T13:32:28.199Z,100187.97
2018-05-23T13:34:54.176Z,100182.08
2018-05-23T13:37:20.138Z,100180.36
2018-05-23T13:39:46.164Z,100176.08
2018-05-23T13:42:12.127Z,100177.92
2018-05-23T13:44:38.153Z,100165.92
2018-05-23T13:47:04.144Z,100167.33
2018-05-23T13:49:30.113Z,100162.06
2018-05-23T13:51:57.397Z,100164.95
2018-05-23T13:54:23.375Z,100153.03
2018-05-23T13:56:49.335Z,100151.65
2018-05-23T13:59:15.295Z,100144.17
2018-05-23T14:01:41.335Z,100146.38
2018-05-23T14:04:07.295Z,100142.70
2018-05-23T14:06:33.235Z,100144.48
2018-05-23T14:08:59.217Z,100136.04
2018-05-23T14:11:25.237Z,100140.19
2018-05-23T14:13:51.177Z,100113.75
2018-05-23T14:16:17.142Z,100141.23
2018-05-23T14:18:43.121Z,100140.84
2018-05-23T14:21:09.172Z,100138.22
2018-05-23T14:23:35.129Z,100142.45
2018-05-23T14:26:01.122Z,100148.08
2018-05-23T14:28:27.130Z,100138.72
2018-05-23T14:30:53.092Z,100139.51
2018-05-23T14:33:19.047Z,100137.99
2018-05-23T14:35:45.062Z,100144.59
2018-05-23T14:38:10.950Z,100138.05
2018-05-23T14:40:36.961Z,100144.53
2018-05-23T14:43:02.937Z,100136.08
2018-05-23T14:45:28.940Z,100138.55
2018-05-23T14:47:54.976Z,100136.98
2018-05-23T14:50:20.984Z,100133.97
2018-05-23T14:52:46.958Z,100136.34
2018-05-23T14:55:12.899Z,100128.68
2018-05-23T14:57:38.957Z,100126.92
2018-05-23T15:00:04.905Z,100125.27
2018-05-23T15:02:30.953Z,100122.77
2018-05-23T15:04:56.864Z,100121.41
2018-05-23T15:07:22.844Z,100116.69
2018-05-23T15:09:48.829Z,100120.30
2018-05-23T15:12:14.777Z,100123.30
2018-05-23T15:14:40.757Z,100117.27
2018-05-23T15:17:06.717Z,100114.60
2018-05-23T15:19:32.679Z,100113.58
2018-05-23T15:21:58.704Z,100118.53
2018-05-23T15:24:24.687Z,100116.28
2018-05-23T15:26:50.711Z,100116.39
2018-05-23T15:29:16.685Z,100111.86
2018-05-23T15:31:42.655Z,100114.00
2018-05-23T15:34:08.685Z,100106.13
2018-05-23T15:36:34.633Z,100106.53
2018-05-23T15:39:00.648Z,100101.64
2018-05-23T15:41:26.636Z,100110.41
2018-05-23T15:43:52.640Z,100107.83
2018-05-23T15:46:18.634Z,100112.53
2018-05-23T15:48:44.585Z,100111.31
2018-05-23T15:51:10.643Z,100105.37
2018-05-23T15:53:36.559Z,100108.52
2018-05-23T15:56:02.503Z,100098.83
2018-05-23T15:58:28.473Z,100093.02
2018-05-23T16:00:54.442Z,100093.56
2018-05-23T16:03:20.394Z,100090.33
2018-05-23T16:05:46.344Z,100104.34
2018-05-23T16:08:12.314Z,100104.76
2018-05-23T16:10:38.258Z,100100.44
2018-05-23T16:13:04.229Z,100113.23
2018-05-23T16:15:30.208Z,100114.50
2018-05-23T16:17:56.162Z,100117.55
2018-05-23T16:20:23.204Z,100124.97
2018-05-23T16:22:49.137Z,100132.48
2018-05-23T16:25:15.161Z,100126.81
2018-05-23T16:27:41.143Z,100140.45
2018-05-23T16:30:07.100Z,100126.12
2018-05-23T16:32:33.086Z,100133.05
2018-05-23T16:34:59.054Z,100134.83
2018-05-23T16:37:25.025Z,100136.47
2018-05-23T16:39:50.980Z,100144.67
2018-05-23T16:42:16.968Z,100141.13
2018-05-23T16:44:43.063Z,100151.59
2018-05-23T16:47:09.062Z,100150.18
2018-05-23T16:49:35.127Z,100144.56
2018-05-23T16:52:01.203Z,100152.73
2018-05-23T16:54:27.163Z,100148.45
2018-05-23T16:56:53.130Z,100150.04
2018-05-23T16:59:19.091Z,100154.40
2018-05-23T17:01:45.138Z,100153.28
2018-05-23T17:04:11.147Z,100158.23
2018-05-23T17:06:37.095Z,100168.52
2018-05-23T17:09:03.080Z,100163.59
2018-05-23T17:11:29.983Z,100163.73
2018-05-23T17:13:56.173Z,100170.89
2018-05-23T17:16:22.196Z,100165.88
2018-05-23T17:18:48.298Z,100170.97
2018-05-23T17:21:14.631Z,100167.96
2018-05-23T17:23:40.592Z,100160.64
2018-05-23T17:26:06.548Z,100175.55
2018-05-23T17:28:32.558Z,100163.12
2018-05-23T17:30:58.542Z,100177.22
2018-05-23T17:33:24.593Z,100170.84
2018-05-23T17:35:50.549Z,100179.73
2018-05-23T17:38:16.575Z,100177.05
2018-05-23T17:40:42.543Z,100186.84
2018-05-23T17:43:08.541Z,100180.05
2018-05-23T17:45:34.606Z,100180.84
2018-05-23T17:48:00.592Z,100186.28
2018-05-23T17:50:26.622Z,100183.31
2018-05-23T17:52:52.609Z,100189.47
2018-05-23T17:55:18.581Z,100186.95
2018-05-23T17:57:44.589Z,100187.91
2018-05-23T18:00:10.678Z,100189.19
2018-05-23T18:02:36.692Z,100197.48
2018-05-23T18:05:02.672Z,100197.45
2018-05-23T18:07:28.681Z,100203.39
2018-05-23T18:09:54.661Z,100209.91
2018-05-23T18:12:20.595Z,100208.47
2018-05-23T18:14:46.569Z,100212.38
2018-05-23T18:17:12.524Z,100213.39
2018-05-23T18:19:38.561Z,100210.13
2018-05-23T18:22:04.519Z,100219.33
2018-05-23T18:24:30.454Z,100216.14
2018-05-23T18:26:56.436Z,100227.63
2018-05-23T18:29:22.812Z,100232.63
2018-05-23T18:31:48.810Z,100222.98
2018-05-23T18:34:14.745Z,100224.48
2018-05-23T18:36:40.687Z,100224.52
2018-05-23T18:39:06.666Z,100229.50
2018-05-23T18:41:32.636Z,100232.89
2018-05-23T18:43:58.629Z,100228.28
2018-05-23T18:46:25.658Z,100232.99
2018-05-23T18:48:51.601Z,100235.29
2018-05-23T18:51:17.613Z,100240.27
2018-05-23T18:53:43.575Z,100242.41
2018-05-23T18:56:09.557Z,100247.98
2018-05-23T18:58:35.563Z,100244.70
2018-05-23T19:01:01.510Z,100250.05
2018-05-23T19:03:27.491Z,100260.97
2018-05-23T19:05:53.456Z,100257.58
2018-05-23T19:08:19.445Z,100249.88
2018-05-23T19:10:45.425Z,100245.12
2018-05-23T19:13:11.402Z,100227.09
2018-05-23T19:15:37.345Z,100239.98
2018-05-23T19:18:03.387Z,100241.17
2018-05-23T19:20:29.665Z,100252.03
2018-05-23T19:22:55.617Z,100249.72
2018-05-23T19:25:21.550Z,100256.63
2018-05-23T19:27:47.515Z,100252.12
2018-05-23T19:30:13.502Z,100255.33
2018-05-23T19:32:39.465Z,100260.91
2018-05-23T19:35:05.434Z,100263.72
2018-05-23T19:37:31.383Z,100268.48
2018-05-23T19:39:57.359Z,100270.63
2018-05-23T19:42:23.354Z,100270.57
2018-05-23T19:44:49.321Z,100268.86
2018-05-23T19:47:15.292Z,100269.72
2018-05-23T19:49:41.259Z,100277.47
2018-05-23T19:52:07.255Z,100274.04
2018-05-23T19:54:33.200Z,100271.05
2018-05-23T19:56:59.241Z,100268.95
2018-05-23T19:59:25.250Z,100279.33
2018-05-23T20:01:51.236Z,100274.86
2018-05-23T20:04:17.233Z,100271.48
2018-05-23T20:06:43.211Z,100266.93
2018-05-23T20:09:09.172Z,100275.58
2018-05-23T20:11:35.149Z,100271.78
2018-05-23T20:14:01.218Z,100273.22
2018-05-23T20:16:27.176Z,100270.77
2018-05-23T20:18:53.150Z,100269.16
2018-05-23T20:21:19.111Z,100276.53
2018-05-23T20:23:45.137Z,100277.82
2018-05-23T20:26:11.114Z,100279.73
2018-05-23T20:28:37.067Z,100273.05
2018-05-23T20:31:03.067Z,100279.73
2018-05-23T20:33:29.071Z,100275.14
2018-05-23T20:35:55.041Z,100276.43
2018-05-23T20:38:20.982Z,100270.63
2018-05-23T20:40:47.061Z,100276.80
2018-05-23T20:43:13.008Z,100268.68
2018-05-23T20:45:38.999Z,100270.64
2018-05-23T20:48:05.029Z,100271.06
2018-05-23T20:50:30.989Z,100272.91
2018-05-23T20:52:56.977Z,100274.91
2018-05-23T20:55:22.989Z,100270.02
2018-05-23T20:57:48.946Z,100275.19
2018-05-23T21:00:14.937Z,100269.49
2018-05-23T21:02:40.888Z,100269.06
2018-05-23T21:05:06.874Z,100274.67
2018-05-23T21:07:32.827Z,100263.33
2018-05-23T21:09:58.828Z,100276.05
2018-05-23T21:12:24.774Z,100285.23
2018-05-23T21:14:50.737Z,100273.39
2018-05-23T21:17:16.673Z,100276.05
2018-05-23T21:19:42.646Z,100285.33
2018-05-23T21:22:08.605Z,100287.51
2018-05-23T21:24:34.601Z,100280.38
2018-05-23T21:27:00.611Z,100281.66
2018-05-23T21:29:26.652Z,100282.23
2018-05-23T21:31:52.613Z,100285.83
2018-05-23T21:34:18.617Z,100283.88
2018-05-23T21:36:44.671Z,100283.59
2018-05-23T21:39:10.644Z,100282.16
2018-05-23T21:41:36.638Z,100283.78
2018-05-23T21:44:02.577Z,100293.34
2018-05-23T21:46:28.545Z,100296.00
2018-05-23T21:48:54.501Z,100298.13
2018-05-23T21:51:20.461Z,100291.91
2018-05-23T21:53:46.430Z,100302.55
2018-05-23T21:56:12.470Z,100290.61
2018-05-23T21:58:38.366Z,100313.84
2018-05-23T22:01:04.323Z,100319.48
2018-05-23T22:03:30.273Z,100322.39
2018-05-23T22:05:56.250Z,100317.99
2018-05-23T22:08:22.218Z,100320.27
2018-05-23T22:10:48.208Z,100317.91
2018-05-23T22:13:14.165Z,100319.61
2018-05-23T22:15:40.126Z,100325.81
2018-05-23T22:18:06.084Z,100322.61
2018-05-23T22:20:32.059Z,100320.02
2018-05-23T22:22:58.010Z,100318.98
2018-05-23T22:25:23.996Z,100322.59
2018-05-23T22:27:49.955Z,100318.04
2018-05-23T22:30:15.945Z,100324.00
2018-05-23T22:32:41.914Z,100321.17
2018-05-23T22:35:07.885Z,100326.77
2018-05-23T22:37:33.851Z,100326.34
2018-05-23T22:39:59.805Z,100321.94
2018-05-23T22:42:25.761Z,100320.23
2018-05-23T22:44:51.713Z,100320.70
2018-05-23T22:47:17.670Z,100323.70
2018-05-23T22:49:43.634Z,100318.19
2018-05-23T22:52:09.599Z,100328.01
2018-05-23T22:54:35.576Z,100326.55
2018-05-23T22:57:01.509Z,100322.97
2018-05-23T22:59:27.453Z,100326.00
2018-05-23T23:01:53.439Z,100328.39
2018-05-23T23:04:19.412Z,100321.56
2018-05-23T23:06:45.352Z,100321.98
2018-05-23T23:09:11.314Z,100325.32
2018-05-23T23:11:37.286Z,100329.45
2018-05-23T23:14:03.245Z,100336.33
2018-05-23T23:16:29.214Z,100338.94
2018-05-23T23:18:55.212Z,100328.98
2018-05-23T23:21:21.173Z,100339.08
2018-05-23T23:23:47.112Z,100331.67
2018-05-23T23:26:13.062Z,100330.98
2018-05-23T23:28:38.995Z,100333.61
2018-05-23T23:31:04.975Z,100338.75
2018-05-23T23:33:30.933Z,100334.10
2018-05-23T23:35:56.920Z,100334.41
2018-05-23T23:38:22.853Z,100335.52
2018-05-23T23:40:48.842Z,100331.21
2018-05-23T23:43:14.823Z,100329.71
2018-05-23T23:45:40.957Z,100330.48
2018-05-23T23:48:06.797Z,100329.88
2018-05-23T23:50:32.755Z,100332.70
2018-05-23T23:52:58.718Z,100333.00
2018-05-23T23:55:24.675Z,100337.44
2018-05-23T23:57:50.689Z,100337.12
